createdAt,value
2019-02-16T00:00:24.983Z,55.55
2019-02-16T00:01:32.654Z,55.23
2019-02-16T00:02:39.182Z,54.95
2019-02-16T00:03:46.994Z,53.94
2019-02-16T00:04:53.397Z,53.29
2019-02-16T00:06:00.791Z,53.88
2019-02-16T00:07:07.940Z,55.19
2019-02-16T00:08:14.357Z,56.16
2019-02-16T00:09:20.923Z,57.27
2019-02-16T00:10:27.354Z,58.77
2019-02-16T00:11:33.980Z,60.97
2019-02-16T00:12:41.428Z,63.69
2019-02-16T00:13:48.929Z,63.53
2019-02-16T00:14:58.055Z,62.20
2019-02-16T00:16:05.272Z,60.75
2019-02-16T00:17:12.391Z,59.84
2019-02-16T00:18:19.436Z,59.10
2019-02-16T00:19:26.100Z,58.17
2019-02-16T00:20:33.250Z,57.17
2019-02-16T00:21:39.915Z,56.38
2019-02-16T00:22:48.064Z,55.71
2019-02-16T00:23:54.964Z,55.28
2019-02-16T00:25:01.650Z,54.80
2019-02-16T00:26:08.221Z,53.75
2019-02-16T00:27:15.434Z,53.13
2019-02-16T00:28:22.025Z,53.66
2019-02-16T00:29:30.027Z,54.77
2019-02-16T00:30:36.487Z,55.76
2019-02-16T00:31:43.311Z,56.99
2019-02-16T00:32:50.599Z,58.50
2019-02-16T00:33:56.877Z,59.28
2019-02-16T00:35:03.707Z,61.56
2019-02-16T00:36:10.247Z,64.38
2019-02-16T00:37:16.800Z,64.62
2019-02-16T00:38:23.790Z,63.29
2019-02-16T00:39:30.828Z,61.65
2019-02-16T00:40:37.657Z,60.14
2019-02-16T00:41:44.905Z,59.17
2019-02-16T00:42:51.930Z,58.40
2019-02-16T00:43:57.903Z,57.58
2019-02-16T00:45:06.737Z,56.68
2019-02-16T00:46:13.460Z,56.44
2019-02-16T00:47:20.374Z,56.16
2019-02-16T00:48:27.326Z,55.81
2019-02-16T00:49:33.836Z,55.21
2019-02-16T00:50:40.412Z,54.84
2019-02-16T00:51:49.251Z,53.49
2019-02-16T00:52:56.009Z,52.97
2019-02-16T00:54:03.867Z,53.65
2019-02-16T00:55:10.910Z,54.55
2019-02-16T00:56:17.584Z,55.46
2019-02-16T00:57:24.407Z,56.60
2019-02-16T00:58:31.637Z,58.03
2019-02-16T00:59:38.577Z,59.18
2019-02-16T01:00:45.334Z,62.02
2019-02-16T01:01:52.525Z,64.49
2019-02-16T01:02:59.215Z,64.00
2019-02-16T01:04:05.512Z,62.79
2019-02-16T01:05:12.594Z,61.08
2019-02-16T01:06:19.467Z,59.66
2019-02-16T01:07:26.659Z,58.31
2019-02-16T01:08:33.866Z,57.63
2019-02-16T01:09:40.157Z,56.92
2019-02-16T01:10:46.442Z,56.26
2019-02-16T01:11:57.603Z,55.65
2019-02-16T01:13:04.808Z,54.91
2019-02-16T01:14:10.930Z,53.27
2019-02-16T01:15:18.575Z,52.90
2019-02-16T01:16:25.506Z,53.38
2019-02-16T01:17:32.360Z,54.23
2019-02-16T01:18:40.172Z,55.33
2019-02-16T01:19:47.701Z,56.40
2019-02-16T01:20:54.467Z,57.93
2019-02-16T01:22:01.422Z,59.19
2019-02-16T01:23:07.972Z,62.27
2019-02-16T01:24:15.030Z,64.98
2019-02-16T01:25:22.142Z,64.86
2019-02-16T01:26:28.638Z,63.40
2019-02-16T01:27:35.049Z,61.58
2019-02-16T01:28:42.601Z,60.21
2019-02-16T01:29:49.052Z,59.20
2019-02-16T01:30:56.266Z,58.31
2019-02-16T01:32:02.726Z,57.92
2019-02-16T01:33:09.958Z,57.42
2019-02-16T01:34:17.216Z,57.35
2019-02-16T01:35:25.025Z,56.72
2019-02-16T01:36:31.539Z,56.23
2019-02-16T01:37:38.547Z,55.68
2019-02-16T01:38:46.422Z,55.29
2019-02-16T01:39:53.335Z,54.54
2019-02-16T01:41:01.554Z,53.42
2019-02-16T01:42:07.835Z,52.87
2019-02-16T01:43:14.974Z,53.60
2019-02-16T01:44:22.093Z,54.65
2019-02-16T01:45:28.605Z,55.58
2019-02-16T01:46:35.706Z,56.64
2019-02-16T01:47:42.610Z,57.74
2019-02-16T01:48:51.258Z,59.20
2019-02-16T01:49:58.098Z,62.08
2019-02-16T01:51:04.682Z,64.83
2019-02-16T01:52:11.223Z,64.54
2019-02-16T01:53:17.709Z,62.72
2019-02-16T01:54:24.280Z,61.39
2019-02-16T01:55:31.708Z,60.18
2019-02-16T01:56:38.959Z,59.11
2019-02-16T01:57:46.620Z,58.19
2019-02-16T01:58:52.847Z,57.28
2019-02-16T02:00:00.059Z,56.59
2019-02-16T02:01:07.615Z,56.25
2019-02-16T02:02:13.933Z,55.24
2019-02-16T02:03:22.203Z,54.92
2019-02-16T02:04:29.066Z,53.09
2019-02-16T02:05:36.445Z,52.18
2019-02-16T02:06:42.375Z,52.62
2019-02-16T02:07:48.986Z,53.61
2019-02-16T02:08:56.204Z,54.93
2019-02-16T02:10:02.818Z,56.28
2019-02-16T02:11:10.045Z,57.50
2019-02-16T02:12:16.750Z,58.62
2019-02-16T02:13:23.600Z,61.06
2019-02-16T02:14:30.350Z,63.70
2019-02-16T02:15:38.228Z,63.86
2019-02-16T02:16:44.426Z,62.54
2019-02-16T02:17:51.064Z,60.91
2019-02-16T02:18:57.194Z,59.66
2019-02-16T02:20:03.348Z,58.55
2019-02-16T02:21:10.092Z,57.28
2019-02-16T02:22:17.111Z,56.18
2019-02-16T02:23:23.943Z,55.06
2019-02-16T02:24:30.879Z,54.16
2019-02-16T02:25:37.855Z,52.55
2019-02-16T02:26:44.963Z,52.04
2019-02-16T02:27:51.557Z,52.52
2019-02-16T02:28:58.001Z,53.68
2019-02-16T02:30:05.377Z,54.54
2019-02-16T02:31:12.267Z,56.25
2019-02-16T02:32:19.379Z,57.18
2019-02-16T02:33:26.438Z,58.41
2019-02-16T02:34:33.323Z,60.66
2019-02-16T02:35:40.197Z,64.13
2019-02-16T02:36:46.148Z,63.96
2019-02-16T02:37:52.059Z,62.41
2019-02-16T02:38:58.960Z,60.87
2019-02-16T02:40:08.386Z,60.10
2019-02-16T02:41:15.575Z,59.27
2019-02-16T02:42:21.920Z,58.69
2019-02-16T02:43:29.792Z,57.87
2019-02-16T02:44:40.402Z,57.22
2019-02-16T02:45:47.736Z,56.89
2019-02-16T02:46:54.338Z,56.48
2019-02-16T02:48:01.720Z,55.89
2019-02-16T02:49:08.691Z,55.39
2019-02-16T02:50:17.733Z,54.93
2019-02-16T02:51:24.635Z,54.79
2019-02-16T02:52:30.861Z,53.10
2019-02-16T02:53:37.718Z,52.57
2019-02-16T02:54:44.320Z,52.76
2019-02-16T02:55:50.523Z,53.79
2019-02-16T02:56:57.219Z,55.16
2019-02-16T02:58:03.595Z,56.18
2019-02-16T02:59:10.466Z,58.23
2019-02-16T03:00:17.481Z,58.86
2019-02-16T03:01:24.807Z,61.58
2019-02-16T03:02:31.671Z,62.96
2019-02-16T03:03:39.457Z,65.05
2019-02-16T03:04:46.999Z,64.80
2019-02-16T03:05:54.361Z,64.51
2019-02-16T03:07:00.268Z,63.48
2019-02-16T03:08:08.205Z,62.08
2019-02-16T03:09:15.671Z,60.98
2019-02-16T03:10:23.227Z,60.17
2019-02-16T03:11:30.740Z,59.42
2019-02-16T03:12:36.897Z,58.51
2019-02-16T03:13:44.126Z,57.47
2019-02-16T03:14:51.719Z,56.87
2019-02-16T03:16:00.083Z,56.51
2019-02-16T03:17:07.105Z,55.90
2019-02-16T03:18:13.455Z,55.34
2019-02-16T03:19:20.285Z,55.02
2019-02-16T03:20:26.942Z,54.62
2019-02-16T03:21:33.650Z,53.20
2019-02-16T03:23:19.516Z,52.60
2019-02-16T03:24:26.822Z,53.31
2019-02-16T03:25:33.578Z,54.35
2019-02-16T03:27:10.024Z,55.62
2019-02-16T03:28:44.488Z,56.89
2019-02-16T03:30:24.290Z,58.32
2019-02-16T03:31:57.154Z,64.98
2019-02-16T03:33:17.475Z,65.10
2019-02-16T03:34:40.110Z,62.72
2019-02-16T03:36:25.026Z,61.81
2019-02-16T03:37:58.601Z,60.35
2019-02-16T03:39:12.562Z,58.95
2019-02-16T03:40:20.196Z,57.73
2019-02-16T03:41:27.546Z,57.02
2019-02-16T03:42:35.156Z,56.29
2019-02-16T03:43:42.205Z,55.69
2019-02-16T03:44:49.733Z,55.14
2019-02-16T03:45:56.466Z,54.78
2019-02-16T03:47:03.183Z,52.97
2019-02-16T03:48:10.059Z,52.56
2019-02-16T03:49:34.324Z,52.64
2019-02-16T03:50:49.866Z,53.33
2019-02-16T03:51:57.400Z,54.43
2019-02-16T03:53:03.874Z,55.90
2019-02-16T03:54:11.789Z,56.97
2019-02-16T03:55:18.774Z,58.16
2019-02-16T03:56:25.763Z,58.87
2019-02-16T03:57:33.252Z,62.94
2019-02-16T03:58:39.347Z,65.00
2019-02-16T03:59:46.575Z,64.39
2019-02-16T04:00:54.473Z,62.84
2019-02-16T04:02:01.089Z,61.59
2019-02-16T04:03:07.916Z,60.49
2019-02-16T04:04:15.811Z,59.28
2019-02-16T04:05:22.041Z,58.64
2019-02-16T04:06:28.963Z,58.25
2019-02-16T04:07:36.125Z,57.46
2019-02-16T04:08:42.744Z,57.15
2019-02-16T04:09:49.970Z,56.70
2019-02-16T04:10:56.457Z,55.94
2019-02-16T04:12:03.233Z,55.59
2019-02-16T04:13:10.021Z,55.63
2019-02-16T04:14:18.570Z,55.41
2019-02-16T04:15:25.534Z,54.86
2019-02-16T04:16:33.119Z,55.03
2019-02-16T04:17:39.678Z,54.83
2019-02-16T04:18:45.793Z,54.16
2019-02-16T04:19:52.577Z,53.13
2019-02-16T04:21:00.025Z,53.43
2019-02-16T04:22:07.736Z,54.74
2019-02-16T04:23:17.542Z,55.99
2019-02-16T04:24:24.080Z,56.93
2019-02-16T04:25:31.095Z,58.17
2019-02-16T04:26:40.413Z,60.47
2019-02-16T04:27:46.794Z,64.46
2019-02-16T04:28:53.327Z,64.53
2019-02-16T04:30:00.398Z,62.11
2019-02-16T04:31:07.335Z,61.32
2019-02-16T04:32:15.155Z,60.51
2019-02-16T04:33:23.538Z,59.80
2019-02-16T04:34:30.072Z,59.25
2019-02-16T04:35:37.390Z,58.74
2019-02-16T04:36:45.391Z,58.22
2019-02-16T04:37:53.176Z,57.67
2019-02-16T04:39:00.392Z,57.73
2019-02-16T04:40:09.262Z,57.45
2019-02-16T04:41:16.051Z,57.00
2019-02-16T04:42:23.251Z,56.62
2019-02-16T04:43:31.122Z,55.98
2019-02-16T04:44:38.229Z,55.86
2019-02-16T04:45:44.939Z,55.74
2019-02-16T04:46:52.602Z,55.67
2019-02-16T04:47:59.237Z,55.77
2019-02-16T04:49:07.414Z,55.53
2019-02-16T04:50:14.758Z,55.19
2019-02-16T04:51:21.027Z,54.98
2019-02-16T04:52:34.365Z,54.64
2019-02-16T04:53:36.297Z,53.68
2019-02-16T04:54:43.876Z,52.98
2019-02-16T04:55:50.624Z,53.32
2019-02-16T04:56:57.248Z,54.48
2019-02-16T04:58:03.458Z,55.52
2019-02-16T04:59:10.049Z,56.73
2019-02-16T05:00:16.680Z,58.36
2019-02-16T05:01:23.263Z,60.25
2019-02-16T05:02:30.104Z,63.37
2019-02-16T05:03:37.280Z,63.57
2019-02-16T05:04:44.497Z,62.39
2019-02-16T05:05:51.606Z,61.05
2019-02-16T05:06:58.635Z,60.29
2019-02-16T05:08:05.891Z,60.53
2019-02-16T05:09:13.115Z,60.10
2019-02-16T05:10:19.927Z,59.49
2019-02-16T05:11:27.197Z,59.04
2019-02-16T05:12:34.049Z,58.50
2019-02-16T05:13:40.541Z,58.19
2019-02-16T05:14:48.270Z,57.76
2019-02-16T05:15:55.488Z,57.11
2019-02-16T05:17:02.609Z,56.80
2019-02-16T05:18:10.290Z,56.51
2019-02-16T05:19:16.223Z,55.92
2019-02-16T05:20:23.491Z,55.38
2019-02-16T05:21:30.237Z,55.43
2019-02-16T05:22:44.196Z,54.85
2019-02-16T05:23:46.064Z,53.42
2019-02-16T05:24:53.561Z,53.02
2019-02-16T05:26:00.446Z,53.74
2019-02-16T05:27:09.561Z,54.03
2019-02-16T05:28:15.708Z,55.38
2019-02-16T05:29:23.226Z,56.26
2019-02-16T05:30:30.021Z,58.28
2019-02-16T05:31:36.548Z,61.93
2019-02-16T05:32:43.420Z,64.21
2019-02-16T05:33:50.479Z,64.03
2019-02-16T05:34:57.096Z,62.39
2019-02-16T05:36:03.760Z,60.40
2019-02-16T05:37:09.860Z,59.09
2019-02-16T05:38:16.779Z,58.20
2019-02-16T05:39:24.049Z,57.44
2019-02-16T05:40:31.599Z,56.62
2019-02-16T05:41:38.310Z,55.52
2019-02-16T05:42:45.242Z,54.79
2019-02-16T05:43:52.667Z,53.06
2019-02-16T05:44:59.283Z,51.84
2019-02-16T05:46:05.832Z,52.36
2019-02-16T05:47:12.174Z,52.79
2019-02-16T05:48:20.695Z,54.46
2019-02-16T05:49:27.122Z,55.00
2019-02-16T05:50:43.481Z,56.01
2019-02-16T05:51:49.875Z,56.90
2019-02-16T05:52:56.551Z,60.33
2019-02-16T05:54:02.985Z,62.48
2019-02-16T05:55:10.482Z,62.56
2019-02-16T05:56:18.260Z,61.86
2019-02-16T05:57:25.027Z,60.93
2019-02-16T05:58:31.474Z,60.04
2019-02-16T05:59:38.558Z,59.05
2019-02-16T06:00:44.906Z,58.43
2019-02-16T06:01:54.239Z,57.17
2019-02-16T06:02:59.759Z,55.91
2019-02-16T06:04:06.800Z,55.51
2019-02-16T06:05:13.211Z,54.86
2019-02-16T06:06:20.551Z,53.72
2019-02-16T06:07:26.767Z,52.84
2019-02-16T06:08:34.562Z,52.76
2019-02-16T06:09:42.236Z,53.65
2019-02-16T06:10:49.964Z,54.04
2019-02-16T06:11:56.458Z,55.81
2019-02-16T06:13:03.530Z,56.81
2019-02-16T06:14:10.421Z,59.25
2019-02-16T06:15:17.879Z,62.25
2019-02-16T06:16:25.129Z,62.50
2019-02-16T06:17:31.209Z,61.69
2019-02-16T06:18:39.192Z,60.15
2019-02-16T06:19:45.846Z,59.14
2019-02-16T06:20:52.189Z,57.98
2019-02-16T06:21:58.594Z,57.40
2019-02-16T06:23:05.023Z,57.09
2019-02-16T06:24:11.625Z,56.54
2019-02-16T06:25:18.351Z,55.70
2019-02-16T06:26:25.527Z,54.77
2019-02-16T06:27:31.584Z,53.08
2019-02-16T06:28:38.963Z,52.16
2019-02-16T06:29:46.017Z,52.75
2019-02-16T06:30:52.675Z,53.47
2019-02-16T06:31:59.413Z,54.14
2019-02-16T06:33:06.560Z,55.25
2019-02-16T06:34:12.993Z,55.68
2019-02-16T06:35:24.172Z,58.78
2019-02-16T06:36:32.885Z,62.80
2019-02-16T06:37:40.188Z,62.90
2019-02-16T06:38:46.992Z,60.76
2019-02-16T06:39:54.611Z,60.93
2019-02-16T06:41:01.964Z,60.48
2019-02-16T06:42:08.459Z,59.49
2019-02-16T06:43:15.921Z,58.74
2019-02-16T06:44:23.187Z,57.96
2019-02-16T06:45:30.112Z,58.00
2019-02-16T06:46:36.793Z,57.54
2019-02-16T06:47:44.099Z,56.62
2019-02-16T06:48:51.321Z,55.88
2019-02-16T06:49:57.894Z,55.11
2019-02-16T06:51:04.361Z,55.08
2019-02-16T06:52:11.641Z,54.76
2019-02-16T06:53:18.239Z,52.97
2019-02-16T06:54:24.320Z,52.08
2019-02-16T06:55:33.101Z,52.13
2019-02-16T06:56:41.368Z,53.28
2019-02-16T06:57:50.709Z,54.68
2019-02-16T06:58:57.091Z,57.09
2019-02-16T07:00:04.389Z,58.41
2019-02-16T07:01:40.286Z,61.84
2019-02-16T07:02:47.645Z,62.28
2019-02-16T07:03:53.594Z,61.91
2019-02-16T07:05:00.967Z,60.56
2019-02-16T07:06:11.614Z,59.31
2019-02-16T07:07:24.212Z,58.08
2019-02-16T07:08:38.734Z,57.51
2019-02-16T07:09:47.083Z,56.81
2019-02-16T07:10:54.438Z,56.33
2019-02-16T07:12:01.142Z,55.53
2019-02-16T07:13:07.715Z,54.96
2019-02-16T07:14:13.984Z,53.44
2019-02-16T07:15:20.971Z,52.64
2019-02-16T07:16:29.071Z,52.80
2019-02-16T07:17:36.906Z,53.40
2019-02-16T07:18:44.826Z,54.82
2019-02-16T07:19:52.661Z,55.65
2019-02-16T07:21:01.308Z,57.37
2019-02-16T07:22:08.245Z,61.27
2019-02-16T07:23:22.190Z,62.08
2019-02-16T07:24:22.993Z,61.50
2019-02-16T07:25:29.228Z,60.21
2019-02-16T07:26:35.819Z,59.42
2019-02-16T07:27:43.296Z,58.38
2019-02-16T07:28:51.154Z,57.52
2019-02-16T07:29:59.091Z,56.80
2019-02-16T07:31:07.163Z,56.35
2019-02-16T07:32:37.213Z,55.91
2019-02-16T07:33:44.472Z,55.57
2019-02-16T07:34:52.987Z,54.91
2019-02-16T07:35:59.097Z,53.75
2019-02-16T07:37:08.274Z,53.18
2019-02-16T07:38:16.286Z,53.43
2019-02-16T07:39:25.189Z,53.95
2019-02-16T07:40:34.369Z,54.42
2019-02-16T07:41:43.722Z,56.22
2019-02-16T07:42:53.433Z,57.71
2019-02-16T07:44:02.514Z,61.32
2019-02-16T07:45:21.147Z,62.76
2019-02-16T07:46:32.344Z,62.59
2019-02-16T07:47:41.213Z,61.46
2019-02-16T07:49:15.037Z,59.78
2019-02-16T07:50:33.431Z,58.67
2019-02-16T07:51:42.474Z,57.60
2019-02-16T07:52:53.266Z,56.40
2019-02-16T07:54:01.256Z,54.86
2019-02-16T07:55:18.085Z,53.24
2019-02-16T07:56:38.127Z,52.77
2019-02-16T07:58:00.303Z,53.18
2019-02-16T07:59:14.135Z,54.21
2019-02-16T08:00:20.193Z,55.31
2019-02-16T08:01:36.095Z,56.39
2019-02-16T08:02:56.147Z,58.22
2019-02-16T08:04:15.073Z,59.51
2019-02-16T08:05:36.685Z,63.72
2019-02-16T08:06:44.486Z,65.21
2019-02-16T08:07:52.186Z,64.28
2019-02-16T08:09:00.306Z,62.72
2019-02-16T08:10:11.766Z,61.25
2019-02-16T08:11:18.584Z,60.64
2019-02-16T08:12:27.323Z,59.33
2019-02-16T08:13:49.793Z,58.44
2019-02-16T08:14:58.474Z,57.78
2019-02-16T08:16:29.377Z,56.75
2019-02-16T08:17:43.836Z,55.76
2019-02-16T08:18:53.396Z,54.93
2019-02-16T08:20:02.498Z,55.07
2019-02-16T08:21:12.845Z,54.60
2019-02-16T08:22:25.246Z,53.40
2019-02-16T08:23:51.136Z,52.89
2019-02-16T08:25:01.545Z,53.48
2019-02-16T08:26:22.165Z,54.53
2019-02-16T08:27:34.993Z,55.21
2019-02-16T08:28:56.076Z,56.70
2019-02-16T08:30:08.285Z,57.85
2019-02-16T08:31:17.106Z,59.16
2019-02-16T08:32:34.122Z,62.47
2019-02-16T08:33:44.193Z,65.26
2019-02-16T08:34:59.691Z,64.68
2019-02-16T08:36:10.699Z,63.03
2019-02-16T08:37:29.711Z,61.24
2019-02-16T08:38:57.092Z,59.05
2019-02-16T08:40:07.911Z,57.42
2019-02-16T08:41:18.924Z,56.18
2019-02-16T08:42:28.611Z,55.33
2019-02-16T08:43:53.881Z,54.53
2019-02-16T08:45:08.185Z,53.23
2019-02-16T08:46:15.992Z,53.45
2019-02-16T08:47:30.884Z,53.95
2019-02-16T08:48:41.074Z,54.91
2019-02-16T08:49:53.552Z,56.51
2019-02-16T08:51:18.271Z,57.68
2019-02-16T08:52:45.413Z,59.21
2019-02-16T08:53:58.213Z,62.26
2019-02-16T08:55:13.726Z,64.29
2019-02-16T08:56:28.308Z,63.28
2019-02-16T08:57:49.753Z,62.20
2019-02-16T08:58:56.167Z,60.46
2019-02-16T09:00:07.868Z,58.59
2019-02-16T09:01:24.699Z,57.26
2019-02-16T09:02:33.431Z,56.43
2019-02-16T09:03:41.104Z,55.46
2019-02-16T09:04:56.612Z,54.78
2019-02-16T09:06:28.332Z,53.11
2019-02-16T09:07:42.856Z,52.50
2019-02-16T09:09:04.053Z,53.36
2019-02-16T09:10:23.407Z,54.33
2019-02-16T09:11:51.293Z,55.70
2019-02-16T09:12:59.842Z,56.85
2019-02-16T09:14:09.911Z,57.63
2019-02-16T09:15:21.932Z,58.83
2019-02-16T09:16:42.123Z,61.72
2019-02-16T09:17:53.646Z,63.82
2019-02-16T09:19:03.451Z,63.25
2019-02-16T09:20:13.380Z,61.45
2019-02-16T09:21:27.172Z,60.09
2019-02-16T09:22:52.545Z,58.50
2019-02-16T09:24:03.825Z,57.09
2019-02-16T09:25:16.641Z,55.85
2019-02-16T09:26:25.233Z,54.41
2019-02-16T09:27:41.425Z,53.15
2019-02-16T09:29:10.932Z,52.63
2019-02-16T09:30:32.346Z,53.41
2019-02-16T09:31:54.336Z,54.20
2019-02-16T09:33:10.514Z,55.03
2019-02-16T09:34:37.232Z,56.92
2019-02-16T09:35:57.773Z,56.88
2019-02-16T09:37:13.644Z,59.65
2019-02-16T09:38:33.705Z,60.60
2019-02-16T09:39:44.694Z,63.23
2019-02-16T09:41:02.086Z,62.14
2019-02-16T09:42:22.853Z,60.64
2019-02-16T09:43:48.811Z,58.76
2019-02-16T09:45:15.025Z,57.44
2019-02-16T09:46:26.515Z,54.94
2019-02-16T09:47:39.011Z,52.95
2019-02-16T09:49:23.052Z,52.04
2019-02-16T09:50:49.372Z,52.10
2019-02-16T09:52:06.004Z,53.51
2019-02-16T09:53:18.665Z,54.62
2019-02-16T09:54:43.152Z,55.88
2019-02-16T09:55:52.232Z,56.57
2019-02-16T09:57:07.091Z,57.11
2019-02-16T09:58:22.535Z,57.62
2019-02-16T09:59:34.593Z,58.98
2019-02-16T10:00:55.475Z,59.06
2019-02-16T10:02:03.900Z,61.35
2019-02-16T10:03:51.836Z,62.70
2019-02-16T10:05:08.313Z,62.36
2019-02-16T10:06:35.072Z,59.77
2019-02-16T10:07:53.333Z,57.21
2019-02-16T10:09:07.733Z,55.49
2019-02-16T10:10:27.872Z,53.75
2019-02-16T10:11:52.313Z,51.75
2019-02-16T10:13:23.520Z,50.66
2019-02-16T10:14:40.440Z,51.23
2019-02-16T10:17:53.237Z,54.52
2019-02-16T10:19:12.852Z,54.54
2019-02-16T10:20:23.346Z,55.17
2019-02-16T10:21:45.706Z,55.65
2019-02-16T10:22:53.932Z,57.20
2019-02-16T10:24:18.600Z,57.59
2019-02-16T10:25:29.653Z,57.43
2019-02-16T10:26:48.514Z,59.28
2019-02-16T10:28:07.106Z,61.17
2019-02-16T10:29:26.438Z,61.80
2019-02-16T10:30:36.523Z,59.97
2019-02-16T10:31:51.065Z,58.10
2019-02-16T10:32:59.834Z,56.01
2019-02-16T10:34:20.155Z,53.98
2019-02-16T10:35:28.985Z,51.52
2019-02-16T10:36:47.014Z,52.49
2019-02-16T10:38:04.866Z,51.87
2019-02-16T10:39:13.850Z,52.24
2019-02-16T10:40:20.007Z,52.69
2019-02-16T10:41:31.472Z,53.10
2019-02-16T10:42:45.147Z,53.94
2019-02-16T10:44:24.118Z,54.54
2019-02-16T10:45:35.033Z,54.15
2019-02-16T10:46:46.465Z,54.53
2019-02-16T10:49:17.093Z,56.57
2019-02-16T10:50:29.305Z,56.55
2019-02-16T10:51:40.495Z,57.59
2019-02-16T10:52:47.505Z,57.91
2019-02-16T10:54:03.208Z,58.63
2019-02-16T10:55:21.825Z,58.34
2019-02-16T10:56:30.876Z,59.03
2019-02-16T10:57:54.032Z,60.14
2019-02-16T10:59:21.846Z,61.37
2019-02-16T11:00:48.533Z,60.16
2019-02-16T11:02:11.366Z,57.25
2019-02-16T11:03:25.613Z,55.33
2019-02-16T11:04:38.840Z,52.30
2019-02-16T11:05:51.029Z,50.68
2019-02-16T11:07:11.445Z,50.20
2019-02-16T11:08:20.172Z,50.12
2019-02-16T11:09:32.621Z,50.84
2019-02-16T11:10:41.165Z,51.21
2019-02-16T11:11:49.954Z,51.87
2019-02-16T11:13:02.273Z,52.61
2019-02-16T11:14:29.636Z,52.42
2019-02-16T11:15:37.795Z,53.03
2019-02-16T11:16:43.845Z,54.01
2019-02-16T11:17:51.926Z,56.11
2019-02-16T11:19:07.846Z,54.86
2019-02-16T11:20:24.793Z,55.16
2019-02-16T11:21:32.361Z,55.63
2019-02-16T11:22:42.633Z,55.84
2019-02-16T11:24:01.534Z,56.74
2019-02-16T11:25:15.821Z,57.45
2019-02-16T11:26:29.986Z,57.29
2019-02-16T11:27:46.356Z,57.09
2019-02-16T11:29:11.634Z,57.21
2019-02-16T11:30:20.460Z,57.68
2019-02-16T11:31:46.637Z,57.60
2019-02-16T11:33:00.502Z,57.67
2019-02-16T11:34:25.673Z,57.48
2019-02-16T11:35:36.307Z,57.77
2019-02-16T11:36:43.033Z,57.39
2019-02-16T11:37:51.553Z,57.94
2019-02-16T11:39:02.646Z,58.67
2019-02-16T11:40:19.146Z,58.14
2019-02-16T11:41:28.514Z,59.21
2019-02-16T11:42:41.055Z,58.42
2019-02-16T11:43:58.906Z,58.39
2019-02-16T11:45:29.355Z,58.87
2019-02-16T11:46:42.573Z,59.84
2019-02-16T11:47:57.193Z,61.44
2019-02-16T11:49:12.968Z,59.81
2019-02-16T11:50:42.046Z,58.65
2019-02-16T11:52:09.881Z,55.00
2019-02-16T11:53:24.335Z,51.70
2019-02-16T11:54:32.426Z,50.66
2019-02-16T11:55:59.314Z,50.43
2019-02-16T11:57:09.469Z,50.41
2019-02-16T11:58:23.227Z,51.69
2019-02-16T11:59:33.433Z,51.42
2019-02-16T12:00:48.190Z,52.11
2019-02-16T12:02:08.415Z,52.13
2019-02-16T12:03:19.045Z,52.74
2019-02-16T12:04:36.221Z,53.49
2019-02-16T12:05:46.381Z,53.54
2019-02-16T12:07:01.107Z,54.48
2019-02-16T12:08:08.754Z,54.05
2019-02-16T12:09:36.174Z,56.11
2019-02-16T12:10:44.554Z,55.55
2019-02-16T12:11:56.835Z,55.57
2019-02-16T12:13:17.354Z,55.93
2019-02-16T12:14:39.722Z,55.95
2019-02-16T12:15:51.201Z,56.08
2019-02-16T12:16:59.100Z,56.01
2019-02-16T12:18:15.325Z,56.74
2019-02-16T12:19:21.943Z,57.10
2019-02-16T12:20:34.061Z,56.94
2019-02-16T12:21:54.642Z,57.03
2019-02-16T12:23:11.983Z,57.56
2019-02-16T12:24:23.176Z,57.45
2019-02-16T12:25:39.556Z,58.39
2019-02-16T12:26:50.369Z,58.28
2019-02-16T12:28:00.018Z,57.86
2019-02-16T12:29:20.689Z,57.82
2019-02-16T12:30:32.970Z,57.61
2019-02-16T12:31:57.963Z,57.83
2019-02-16T12:33:06.202Z,57.23
2019-02-16T12:34:14.551Z,57.47
2019-02-16T12:35:22.964Z,57.75
2019-02-16T12:36:30.805Z,58.19
2019-02-16T12:37:39.371Z,57.81
2019-02-16T12:38:48.751Z,58.16
2019-02-16T12:40:11.733Z,58.13
2019-02-16T12:41:28.553Z,57.60
2019-02-16T12:42:48.065Z,58.01
2019-02-16T12:43:59.845Z,58.09
2019-02-16T12:45:12.519Z,58.53
2019-02-16T12:46:20.910Z,58.12
2019-02-16T12:47:30.230Z,58.12
2019-02-16T12:48:48.575Z,57.35
2019-02-16T12:50:00.246Z,58.14
2019-02-16T12:51:09.174Z,57.43
2019-02-16T12:52:36.055Z,57.33
2019-02-16T12:53:45.535Z,56.84
2019-02-16T12:55:14.473Z,56.82
2019-02-16T12:56:20.386Z,56.80
2019-02-16T12:57:34.437Z,57.57
2019-02-16T12:58:48.835Z,57.57
2019-02-16T13:00:13.128Z,57.72
2019-02-16T13:01:27.974Z,57.67
2019-02-16T13:02:39.402Z,57.20
2019-02-16T13:04:04.421Z,57.59
2019-02-16T13:05:12.380Z,57.53
2019-02-16T13:06:20.731Z,57.52
2019-02-16T13:07:28.764Z,57.66
2019-02-16T13:08:42.713Z,56.58
2019-02-16T13:10:06.013Z,56.46
2019-02-16T13:11:29.252Z,56.26
2019-02-16T13:12:35.620Z,56.78
2019-02-16T13:14:00.193Z,56.71
2019-02-16T13:15:15.055Z,56.11
2019-02-16T13:16:25.512Z,56.49
2019-02-16T13:17:53.581Z,56.15
2019-02-16T13:19:00.792Z,56.11
2019-02-16T13:20:23.791Z,55.85
2019-02-16T13:21:39.074Z,55.61
2019-02-16T13:23:02.958Z,56.31
2019-02-16T13:24:13.715Z,56.10
2019-02-16T13:25:27.409Z,56.33
2019-02-16T13:26:44.140Z,56.75
2019-02-16T13:28:12.260Z,56.55
2019-02-16T13:29:21.640Z,56.85
2019-02-16T13:30:30.901Z,56.48
2019-02-16T13:31:55.093Z,56.50
2019-02-16T13:33:08.794Z,56.88
2019-02-16T13:34:33.521Z,57.22
2019-02-16T13:35:40.522Z,57.50
2019-02-16T13:36:53.380Z,57.52
2019-02-16T13:38:02.100Z,57.08
2019-02-16T13:39:11.420Z,57.40
2019-02-16T13:40:22.562Z,57.39
2019-02-16T13:41:34.283Z,57.65
2019-02-16T13:42:43.395Z,57.27
2019-02-16T13:43:52.620Z,57.63
2019-02-16T13:45:01.244Z,58.07
2019-02-16T13:46:09.869Z,57.61
2019-02-16T13:47:30.977Z,57.37
2019-02-16T13:48:39.513Z,57.19
2019-02-16T13:49:47.933Z,57.57
2019-02-16T13:50:56.503Z,57.80
2019-02-16T13:52:13.592Z,57.91
2019-02-16T13:53:24.802Z,57.66
2019-02-16T13:54:33.601Z,57.84
2019-02-16T13:55:47.754Z,57.63
2019-02-16T13:56:59.960Z,57.58
2019-02-16T13:58:17.109Z,57.84
2019-02-16T13:59:25.238Z,58.16
2019-02-16T14:00:42.210Z,58.01
2019-02-16T14:02:03.358Z,58.19
2019-02-16T14:03:11.609Z,58.42
2019-02-16T14:04:30.995Z,58.17
2019-02-16T14:05:47.698Z,58.52
2019-02-16T14:06:56.584Z,58.20
2019-02-16T14:08:05.999Z,58.18
2019-02-16T14:09:14.594Z,58.30
2019-02-16T14:10:23.479Z,58.82
2019-02-16T14:11:37.878Z,59.06
2019-02-16T14:12:54.751Z,59.01
2019-02-16T14:14:18.841Z,58.81
2019-02-16T14:15:29.636Z,58.78
2019-02-16T14:16:41.559Z,58.74
2019-02-16T14:17:49.098Z,58.70
2019-02-16T14:18:56.522Z,59.06
2019-02-16T14:20:03.928Z,58.98
2019-02-16T14:21:11.121Z,58.95
2019-02-16T14:22:18.061Z,58.60
2019-02-16T14:23:24.899Z,59.11
2019-02-16T14:24:45.483Z,59.01
2019-02-16T14:25:52.475Z,59.18
2019-02-16T14:26:59.556Z,59.05
2019-02-16T14:28:06.496Z,59.00
2019-02-16T14:29:13.057Z,59.18
2019-02-16T14:30:19.617Z,59.98
2019-02-16T14:31:28.706Z,61.23
2019-02-16T14:32:35.701Z,60.39
2019-02-16T14:33:43.105Z,58.75
2019-02-16T14:34:50.065Z,56.35
2019-02-16T14:35:57.026Z,54.70
2019-02-16T14:37:05.506Z,52.19
2019-02-16T14:38:15.545Z,50.71
2019-02-16T14:39:23.706Z,49.83
2019-02-16T14:40:31.425Z,50.19
2019-02-16T14:41:39.005Z,50.28
2019-02-16T14:42:45.686Z,50.72
2019-02-16T14:43:52.688Z,51.22
2019-02-16T14:44:59.851Z,51.73
2019-02-16T14:46:06.173Z,52.02
2019-02-16T14:47:14.052Z,52.42
2019-02-16T14:48:20.658Z,52.85
2019-02-16T14:49:27.022Z,53.49
2019-02-16T14:50:34.286Z,53.87
2019-02-16T14:51:42.931Z,53.94
2019-02-16T14:52:50.111Z,54.40
2019-02-16T14:53:56.742Z,55.34
2019-02-16T14:55:03.420Z,55.29
2019-02-16T14:56:10.168Z,55.88
2019-02-16T14:57:17.168Z,55.99
2019-02-16T14:58:23.773Z,56.47
2019-02-16T14:59:30.767Z,56.56
2019-02-16T15:00:38.149Z,56.98
2019-02-16T15:01:45.179Z,57.28
2019-02-16T15:02:51.747Z,57.36
2019-02-16T15:03:59.138Z,57.98
2019-02-16T15:05:06.577Z,57.85
2019-02-16T15:06:13.706Z,58.36
2019-02-16T15:07:21.009Z,58.99
2019-02-16T15:08:29.035Z,58.77
2019-02-16T15:09:35.822Z,59.17
2019-02-16T15:10:43.354Z,59.44
2019-02-16T15:11:49.894Z,60.35
2019-02-16T15:12:56.924Z,61.81
2019-02-16T15:14:04.306Z,60.16
2019-02-16T15:15:14.264Z,58.34
2019-02-16T15:16:21.867Z,56.37